首页
METAR-TAF:

METAR-TAF

机场 :

Terrace, 不列颠哥伦比亚, 加拿大

纬度: 54-28N, 经度: 128-35W, 海拔: 217米

当前天气观测

该预报发布于1小时和11分钟前的10:00 UTC
风速25节,风向
温度 6°C
湿度 65%
气压 1017 hPa
能見度: 32.2公里
少量云层高于7900英尺
散云层高于9300英尺
阴天层高于11000英尺

METAR: CYXT 211000Z 17025KT 20SM FEW079 SCT093 OVC110 06/00 A3004 RMK AC1AC3AC4 SLP180

时间: 04:11 (11:11 UTC)

预报

该预报发布于54分钟前的10:17 UTC
预报有效从21日的 10点(UTC)到 21日的 19点(UTC)
风速22节,风向
能見度: 10公里
少量云层高于4000英尺
散云层高于9000英尺
多云层高于12000英尺
从 21日的 1500点(UTC)
风速15节,风向
能見度: 10公里
多云层高于4000英尺
短暂存在
从 21日的 15点(UTC)到 21日的 19点(UTC)
能見度: 10公里
小雨

TAF: CYXT 211017Z 2110/2119 17022KT P6SM FEW040 SCT090 BKN120 FM211500 17015KT P6SM BKN040 TEMPO 2115/2119 P6SM -RA RMK NXT FCST BY 211300Z

超过4000个机场的气象观测和天气预报(METAR&TAF报告)。

可查询的气象台以黄色和红色小点在地图上表示。

将鼠标移到小点上方,可查看气象台名称。

然后点击查看天气观测和预报。

如需切换地图:点击带黑十字的绿色按钮放大地图;点击带横线的绿色按钮缩小地图;或者点击绿色箭头查看邻近地区的地图。


METAR-TAF: